Time;durP1;ratioP1;P1;durP2;ratioP2;P2;SDS_P1;SDS_P2;PMS_P1;PMS_P2;Temp;Humidity;BMP_temperature;BMP_pressure;BME280_temperature;BME280_humidity;BME280_pressure;Samples;Min_cycle;Max_cycle;Signal;HPM_P1;HPM_P2
2022/08/31 00:06:18;;;;;;;5.37;2.07;;;17.40;99.90;;;;;;5032123;28;20282;-57
2022/08/31 00:08:45;;;;;;;2.47;1.80;;;17.40;99.90;;;;;;5032422;28;20214;-54
2022/08/31 00:11:13;;;;;;;2.03;1.60;;;17.30;99.90;;;;;;5032631;28;20203;-51
2022/08/31 00:13:40;;;;;;;1.97;1.73;;;17.30;99.90;;;;;;5032073;28;20720;-56
2022/08/31 00:16:07;;;;;;;2.70;1.70;;;17.30;99.90;;;;;;5031996;28;20264;-57
2022/08/31 00:18:34;;;;;;;3.40;1.80;;;17.30;99.90;;;;;;5031998;28;20814;-52
2022/08/31 00:21:00;;;;;;;6.97;1.87;;;17.20;99.90;;;;;;5031990;28;20283;-53
2022/08/31 00:23:28;;;;;;;2.50;1.80;;;17.20;99.90;;;;;;5032015;28;20230;-56
2022/08/31 00:25:55;;;;;;;2.27;1.77;;;17.20;99.90;;;;;;5031630;28;20676;-55
2022/08/31 00:28:22;;;;;;;2.47;1.70;;;17.20;99.90;;;;;;5031961;28;20631;-55
2022/08/31 00:30:49;;;;;;;2.53;1.90;;;17.20;99.90;;;;;;5032102;28;20236;-56
2022/08/31 00:33:15;;;;;;;2.57;1.70;;;17.20;99.90;;;;;;5031820;28;20234;-56
2022/08/31 00:35:43;;;;;;;2.63;1.70;;;17.10;99.90;;;;;;5032046;28;20206;-55
2022/08/31 00:38:10;;;;;;;4.03;1.50;;;17.10;99.90;;;;;;5031561;28;20210;-56
2022/08/31 00:40:42;;;;;;;2.43;1.47;;;17.10;99.90;;;;;;5031910;28;20268;-55
2022/08/31 00:43:08;;;;;;;5.87;1.90;;;17.10;99.90;;;;;;5031993;28;20210;-54
2022/08/31 00:45:35;;;;;;;2.13;1.60;;;17.10;99.90;;;;;;5031378;28;20684;-56
2022/08/31 00:48:02;;;;;;;2.47;1.70;;;17.10;99.90;;;;;;5031511;28;20206;-56
2022/08/31 00:50:29;;;;;;;1.60;1.50;;;17.00;99.90;;;;;;5031803;28;20210;-55
2022/08/31 00:53:00;;;;;;;4.50;1.67;;;17.00;99.90;;;;;;5031856;28;20214;-54
2022/08/31 00:55:30;;;;;;;2.77;1.50;;;17.00;99.90;;;;;;5031700;28;20206;-56
2022/08/31 00:58:02;;;;;;;1.47;1.37;;;17.00;99.90;;;;;;5031668;28;20208;-56
2022/08/31 01:00:30;;;;;;;3.40;1.50;;;17.00;99.90;;;;;;5031637;28;20280;-56
2022/08/31 01:03:00;;;;;;;2.60;1.53;;;17.00;99.90;;;;;;5031704;28;20225;-56
2022/08/31 01:05:28;;;;;;;2.60;1.70;;;17.00;99.90;;;;;;5031983;28;20246;-56
2022/08/31 01:07:55;;;;;;;1.57;1.30;;;17.00;1.00;;;;;;5031307;28;20679;-54
2022/08/31 01:10:25;;;;;;;1.23;1.10;;;17.00;1.00;;;;;;5031519;28;20210;-55
2022/08/31 01:12:54;;;;;;;2.10;1.50;;;17.00;1.00;;;;;;5032283;28;20264;-56
2022/08/31 01:15:24;;;;;;;2.23;1.57;;;17.00;1.00;;;;;;5035698;28;20205;-56
2022/08/31 01:17:54;;;;;;;2.60;1.40;;;17.00;1.00;;;;;;5035470;28;20217;-55
2022/08/31 01:20:27;;;;;;;1.47;1.37;;;17.00;1.00;;;;;;5035738;28;20257;-56
2022/08/31 01:23:05;;;;;;;1.50;1.37;;;17.00;1.00;;;;;;5035524;28;20282;-56
2022/08/31 01:25:34;;;;;;;1.40;1.30;;;17.00;1.00;;;;;;5035089;28;20632;-56
2022/08/31 01:28:03;;;;;;;2.00;1.40;;;17.00;1.00;;;;;;5035128;28;20260;-55
2022/08/31 01:30:30;;;;;;;2.90;1.20;;;17.00;8.30;;;;;;5035212;28;20235;-56
2022/08/31 01:32:57;;;;;;;2.03;1.30;;;17.00;39.60;;;;;;5035072;28;20276;-56
2022/08/31 01:35:24;;;;;;;2.40;1.50;;;17.00;46.20;;;;;;5035053;28;20206;-56
2022/08/31 01:37:52;;;;;;;2.83;1.60;;;17.00;82.50;;;;;;5034812;28;20252;-52
2022/08/31 01:40:20;;;;;;;2.00;1.23;;;17.00;85.30;;;;;;5035032;28;20245;-56
2022/08/31 01:42:47;;;;;;;4.93;1.73;;;16.90;99.90;;;;;;5035001;28;20222;-56
2022/08/31 01:45:13;;;;;;;2.47;1.63;;;16.90;99.90;;;;;;5034951;28;20234;-56
2022/08/31 01:47:40;;;;;;;1.50;1.40;;;16.90;99.90;;;;;;5034564;28;20252;-55
2022/08/31 01:50:08;;;;;;;3.00;1.63;;;16.90;99.90;;;;;;5035022;28;20268;-54
2022/08/31 01:52:36;;;;;;;1.70;1.40;;;16.90;99.90;;;;;;5034571;28;20203;-55
2022/08/31 01:55:04;;;;;;;2.33;1.50;;;16.90;99.90;;;;;;5034978;28;20223;-56
2022/08/31 01:57:33;;;;;;;4.20;1.40;;;16.80;99.90;;;;;;5034899;28;20202;-56
2022/08/31 02:00:00;;;;;;;2.23;1.43;;;16.80;99.90;;;;;;5034893;28;20210;-56
2022/08/31 02:02:27;;;;;;;1.67;1.37;;;16.90;99.90;;;;;;5034545;28;20233;-56
2022/08/31 02:04:53;;;;;;;3.13;1.53;;;16.80;99.90;;;;;;5034307;28;20238;-55
2022/08/31 02:07:20;;;;;;;2.73;1.37;;;16.80;1.00;;;;;;5034461;28;20214;-53
2022/08/31 02:09:46;;;;;;;2.80;1.63;;;16.80;1.00;;;;;;5034725;28;20260;-55
2022/08/31 02:12:13;;;;;;;1.77;1.27;;;16.80;1.00;;;;;;5034729;28;20206;-56
2022/08/31 02:14:41;;;;;;;1.97;1.43;;;16.70;1.00;;;;;;5034235;28;20720;-56
2022/08/31 02:17:08;;;;;;;6.30;1.20;;;16.60;1.00;;;;;;5034105;28;20731;-56
2022/08/31 02:19:35;;;;;;;6.10;2.03;;;16.70;19.30;;;;;;5034393;28;20563;-56
2022/08/31 02:22:01;;;;;;;1.77;1.40;;;16.60;67.10;;;;;;5034151;28;20705;-54
2022/08/31 02:24:29;;;;;;;1.63;1.50;;;16.60;99.90;;;;;;5033272;28;20248;-56
2022/08/31 02:26:56;;;;;;;1.93;1.50;;;16.60;99.90;;;;;;5034189;28;20206;-52
2022/08/31 02:29:23;;;;;;;2.50;1.43;;;16.60;99.90;;;;;;5034123;28;20669;-53
2022/08/31 02:31:51;;;;;;;1.67;1.30;;;16.50;99.90;;;;;;5034124;28;20211;-55
2022/08/31 02:34:18;;;;;;;1.80;1.50;;;16.50;99.90;;;;;;5033930;28;20231;-56
2022/08/31 02:36:45;;;;;;;4.50;1.70;;;16.50;1.00;;;;;;5033738;28;20684;-57
2022/08/31 02:39:12;;;;;;;3.73;1.57;;;16.50;1.00;;;;;;5034072;28;20211;-56
2022/08/31 02:41:38;;;;;;;2.10;1.53;;;16.50;1.00;;;;;;5033966;28;20262;-55
2022/08/31 02:44:06;;;;;;;3.83;1.70;;;16.50;95.00;;;;;;5033608;28;20300;-57
2022/08/31 02:46:33;;;;;;;2.37;1.40;;;16.40;92.70;;;;;;5033559;28;20202;-57
2022/08/31 02:49:02;;;;;;;2.57;1.70;;;16.40;99.90;;;;;;5033502;28;20252;-56
2022/08/31 02:51:29;;;;;;;4.23;1.70;;;16.40;99.90;;;;;;5034019;28;20253;-57
2022/08/31 02:53:56;;;;;;;1.70;1.60;;;16.40;99.90;;;;;;5033709;28;20280;-55
2022/08/31 02:56:24;;;;;;;3.37;1.63;;;16.40;99.90;;;;;;5033615;28;20202;-55
2022/08/31 02:58:53;;;;;;;1.47;1.37;;;16.30;1.00;;;;;;5033284;28;20249;-56
2022/08/31 03:01:21;;;;;;;2.33;1.80;;;16.30;1.10;;;;;;5033363;28;20211;-54
2022/08/31 03:03:48;;;;;;;2.23;1.80;;;16.20;99.90;;;;;;5033582;28;20230;-57
2022/08/31 03:06:17;;;;;;;1.77;1.60;;;16.20;99.90;;;;;;5033492;28;20210;-56
2022/08/31 03:08:44;;;;;;;2.03;1.80;;;16.20;99.90;;;;;;5033313;28;20207;-54
2022/08/31 03:11:10;;;;;;;2.40;1.80;;;16.20;1.00;;;;;;5033433;28;20206;-56
2022/08/31 03:13:37;;;;;;;1.47;1.23;;;16.10;5.60;;;;;;5033295;28;20218;-53
2022/08/31 03:16:04;;;;;;;2.90;1.27;;;16.20;99.90;;;;;;5033082;28;20214;-56
2022/08/31 03:18:31;;;;;;;2.60;1.60;;;16.20;99.90;;;;;;5033307;28;20243;-48
2022/08/31 03:20:58;;;;;;;3.53;1.57;;;16.10;99.90;;;;;;5033348;28;20297;-49
2022/08/31 03:23:26;;;;;;;2.63;1.60;;;16.10;99.90;;;;;;5033094;28;20230;-53
2022/08/31 03:25:53;;;;;;;3.63;1.57;;;16.10;1.00;;;;;;5032856;28;20268;-53
2022/08/31 03:28:20;;;;;;;3.17;1.97;;;16.10;1.00;;;;;;5033148;28;20560;-49
2022/08/31 03:30:46;;;;;;;2.57;1.90;;;16.00;67.50;;;;;;5032858;28;20696;-53
2022/08/31 03:33:14;;;;;;;3.20;1.70;;;16.00;99.90;;;;;;5033125;28;20237;-55
2022/08/31 03:35:43;;;;;;;4.40;1.70;;;16.10;99.90;;;;;;5032654;28;20699;-56
2022/08/31 03:38:11;;;;;;;2.33;1.80;;;16.00;99.90;;;;;;5033472;28;20208;-55
2022/08/31 03:40:40;;;;;;;2.13;1.70;;;16.10;99.90;;;;;;5032863;28;20206;-53
2022/08/31 03:43:10;;;;;;;2.07;1.57;;;16.00;1.00;;;;;;5032593;28;20218;-52
2022/08/31 03:45:37;;;;;;;4.20;1.53;;;16.00;86.20;;;;;;5032403;28;20724;-51
2022/08/31 03:48:05;;;;;;;2.00;1.50;;;16.00;99.90;;;;;;5032704;28;20201;-54
2022/08/31 03:50:31;;;;;;;2.40;1.70;;;16.00;99.90;;;;;;5032633;28;20211;-55
2022/08/31 03:52:58;;;;;;;2.53;1.40;;;16.00;99.90;;;;;;5032445;28;20207;-52
2022/08/31 03:55:27;;;;;;;3.20;1.73;;;16.00;99.90;;;;;;5032608;28;20206;-52
2022/08/31 03:57:55;;;;;;;2.40;1.73;;;16.00;99.90;;;;;;5032226;28;20213;-52
2022/08/31 04:00:22;;;;;;;1.60;1.50;;;16.00;99.90;;;;;;5032548;28;20210;-56
2022/08/31 04:02:49;;;;;;;1.70;1.40;;;16.00;99.90;;;;;;5032258;28;20276;-49
2022/08/31 04:05:16;;;;;;;3.53;1.57;;;16.00;99.90;;;;;;5032379;28;20230;-53
2022/08/31 04:07:43;;;;;;;3.97;1.70;;;16.00;99.90;;;;;;5032058;28;20213;-50
2022/08/31 04:10:11;;;;;;;1.50;1.40;;;16.00;99.90;;;;;;5032277;28;20202;-53
2022/08/31 04:12:37;;;;;;;2.50;1.70;;;16.10;99.90;;;;;;5032194;28;20233;-52
2022/08/31 04:15:07;;;;;;;2.37;1.50;;;16.10;99.90;;;;;;5032161;28;20372;-55
2022/08/31 04:17:34;;;;;;;2.80;1.70;;;16.10;99.90;;;;;;5031892;28;20202;-56
2022/08/31 04:20:01;;;;;;;1.93;1.43;;;16.10;99.90;;;;;;5032230;28;20202;-54
2022/08/31 04:22:28;;;;;;;6.07;1.60;;;16.00;1.00;;;;;;5031798;28;20233;-55
2022/08/31 04:24:55;;;;;;;2.00;1.40;;;16.00;1.00;;;;;;5032238;28;20226;-56
2022/08/31 04:27:22;;;;;;;2.17;1.60;;;16.00;1.00;;;;;;5031723;28;20210;-56
2022/08/31 04:29:48;;;;;;;2.87;1.60;;;16.00;1.00;;;;;;5032667;28;20673;-56
2022/08/31 04:32:16;;;;;;;1.87;1.60;;;16.00;1.00;;;;;;5032266;28;20206;-56
2022/08/31 04:34:43;;;;;;;4.73;1.60;;;16.00;1.00;;;;;;5032240;28;20226;-55
2022/08/31 04:37:13;;;;;;;1.90;1.70;;;15.90;20.20;;;;;;5031977;28;20640;-56
2022/08/31 04:39:40;;;;;;;4.27;2.10;;;15.90;99.90;;;;;;5031904;28;20210;-54
2022/08/31 04:42:06;;;;;;;3.43;1.93;;;15.90;99.90;;;;;;5031806;28;20225;-55
2022/08/31 04:44:33;;;;;;;4.83;2.23;;;15.80;99.90;;;;;;5031767;28;20237;-56
2022/08/31 04:47:00;;;;;;;2.10;1.90;;;15.70;1.00;;;;;;5031285;28;20568;-62
2022/08/31 04:49:28;;;;;;;3.13;1.93;;;15.60;2.70;;;;;;5029121;28;20213;-56
2022/08/31 04:51:54;;;;;;;1.70;1.60;;;15.50;99.90;;;;;;5031082;28;20706;-56
2022/08/31 04:54:21;;;;;;;2.70;1.90;;;15.30;96.90;;;;;;5031365;28;20319;-56
2022/08/31 04:56:48;;;;;;;2.30;1.90;;;15.30;99.90;;;;;;5031420;28;20210;-57
2022/08/31 04:59:17;;;;;;;2.53;2.00;;;15.20;1.00;;;;;;5031322;28;20210;-57
2022/08/31 05:01:45;;;;;;;3.47;1.93;;;15.20;1.00;;;;;;5031562;28;20210;-57
2022/08/31 05:04:13;;;;;;;3.23;2.10;;;15.10;1.00;;;;;;5030971;28;20291;-56
2022/08/31 05:06:44;;;;;;;6.57;2.27;;;15.10;79.60;;;;;;5031375;28;20253;-53
2022/08/31 05:09:13;;;;;;;4.73;2.40;;;15.00;99.90;;;;;;5031228;28;20206;-55
2022/08/31 05:11:40;;;;;;;2.67;2.10;;;15.00;99.90;;;;;;5031408;28;20257;-54
2022/08/31 05:14:08;;;;;;;3.83;2.60;;;15.00;99.90;;;;;;5030893;28;20255;-53
2022/08/31 05:16:36;;;;;;;3.73;2.10;;;15.10;99.90;;;;;;5030937;28;20217;-56
2022/08/31 05:19:03;;;;;;;3.73;2.23;;;15.10;99.90;;;;;;5031260;28;20214;-55
2022/08/31 05:21:32;;;;;;;4.37;2.63;;;15.10;99.90;;;;;;5030894;28;20198;-56
2022/08/31 05:24:03;;;;;;;10.93;2.53;;;15.00;99.90;;;;;;5031115;28;20230;-55
2022/08/31 05:26:31;;;;;;;2.53;2.30;;;15.10;99.90;;;;;;5031100;28;20218;-62
2022/08/31 05:29:00;;;;;;;4.00;2.30;;;15.10;99.90;;;;;;5030955;28;20218;-62
2022/08/31 05:31:28;;;;;;;4.83;2.20;;;15.10;99.90;;;;;;5030718;28;20214;-63
2022/08/31 05:33:56;;;;;;;5.73;2.57;;;15.10;99.90;;;;;;5031119;28;20740;-61
2022/08/31 05:36:22;;;;;;;8.83;2.17;;;15.10;99.90;;;;;;5030867;28;20206;-61
2022/08/31 05:38:49;;;;;;;4.97;2.43;;;15.10;99.90;;;;;;5031188;28;20214;-61
2022/08/31 05:41:17;;;;;;;4.90;2.33;;;15.10;99.90;;;;;;5030697;28;20245;-61
2022/08/31 05:43:43;;;;;;;6.23;3.10;;;15.10;99.90;;;;;;5030774;28;20308;-59
2022/08/31 05:46:13;;;;;;;2.97;2.17;;;15.10;99.90;;;;;;5030731;28;20244;-57
2022/08/31 05:48:40;;;;;;;5.57;2.50;;;15.10;99.90;;;;;;5031236;28;20577;-57
2022/08/31 05:51:10;;;;;;;2.60;2.13;;;15.10;99.90;;;;;;5030654;28;20206;-58
2022/08/31 05:53:38;;;;;;;5.77;2.27;;;15.10;99.90;;;;;;5031043;28;20273;-58
2022/08/31 05:56:08;;;;;;;3.83;2.63;;;15.10;99.90;;;;;;5030435;28;20206;-58
2022/08/31 05:58:38;;;;;;;8.40;2.67;;;15.20;99.90;;;;;;5031040;28;20199;-61
2022/08/31 06:01:12;;;;;;;9.50;2.60;;;15.20;99.90;;;;;;5033438;28;20202;-60
2022/08/31 06:03:39;;;;;;;3.53;2.30;;;15.20;99.90;;;;;;5034181;28;20245;-56
2022/08/31 06:06:07;;;;;;;2.80;2.30;;;15.30;99.90;;;;;;5034083;28;20206;-60
2022/08/31 06:08:34;;;;;;;6.67;2.67;;;15.30;99.90;;;;;;5033805;28;20213;-60
2022/08/31 06:11:01;;;;;;;6.50;2.93;;;15.30;97.10;;;;;;5033932;28;20305;-59
2022/08/31 06:13:27;;;;;;;3.37;2.50;;;15.40;85.10;;;;;;5022518;28;20214;-56
2022/08/31 06:15:58;;;;;;;7.17;2.80;;;15.40;1.00;;;;;;5032482;28;20206;-57
2022/08/31 06:18:24;;;;;;;2.77;2.30;;;15.50;1.00;;;;;;5033341;28;20826;-59
2022/08/31 06:21:01;;;;;;;8.60;2.80;;;15.60;1.00;;;;;;5033581;28;20206;-59
2022/08/31 06:23:28;;;;;;;3.00;2.60;;;15.60;99.90;;;;;;5013570;28;20654;-60
2022/08/31 06:26:02;;;;;;;5.10;2.70;;;15.70;1.00;;;;;;5013302;28;20218;-59
2022/08/31 06:28:31;;;;;;;5.40;2.40;;;15.80;1.00;;;;;;5013800;28;20206;-59
2022/08/31 06:31:00;;;;;;;4.13;2.47;;;15.90;99.90;;;;;;5013485;28;20640;-59
2022/08/31 06:33:26;;;;;;;5.27;2.50;;;15.90;1.00;;;;;;5013584;28;20226;-58
2022/08/31 06:35:53;;;;;;;4.30;2.50;;;15.90;1.00;;;;;;5012660;28;20276;-57
2022/08/31 06:38:20;;;;;;;4.47;2.80;;;16.00;1.00;;;;;;5013561;28;20211;-65
2022/08/31 06:40:46;;;;;;;7.97;4.87;;;16.10;99.90;;;;;;5013056;28;20211;-62
2022/08/31 06:43:13;;;;;;;8.73;4.13;;;16.20;20.80;;;;;;5032202;28;20809;-61
2022/08/31 06:45:40;;;;;;;5.27;2.87;;;16.30;99.90;;;;;;5032731;28;20206;-60
2022/08/31 06:48:08;;;;;;;6.30;5.20;;;16.40;1.00;;;;;;5032717;28;20561;-59
2022/08/31 06:50:37;;;;;;;5.50;2.53;;;16.50;99.90;;;;;;5033094;28;20206;-60
2022/08/31 06:53:04;;;;;;;3.83;2.47;;;16.60;99.90;;;;;;5032918;28;20244;-64
2022/08/31 06:55:31;;;;;;;6.70;2.83;;;16.70;99.90;;;;;;5032592;28;20730;-64
2022/08/31 06:57:57;;;;;;;4.73;2.60;;;16.80;1.00;;;;;;5032701;28;20210;-59
2022/08/31 07:00:24;;;;;;;3.03;2.37;;;16.80;99.90;;;;;;5032971;28;20249;-56
2022/08/31 07:02:52;;;;;;;4.43;2.50;;;16.80;99.90;;;;;;5032366;28;20648;-58
2022/08/31 07:05:20;;;;;;;4.67;2.50;;;16.70;99.90;;;;;;5032503;28;20237;-62
2022/08/31 07:07:46;;;;;;;6.43;3.27;;;16.70;1.00;;;;;;5032565;28;20685;-61
2022/08/31 07:10:13;;;;;;;9.10;3.03;;;16.70;1.00;;;;;;5032424;28;20202;-59
2022/08/31 07:12:40;;;;;;;7.13;2.73;;;16.70;99.90;;;;;;5032544;28;20218;-61
2022/08/31 07:15:07;;;;;;;5.03;2.80;;;16.80;98.20;;;;;;5032068;28;20226;-59
2022/08/31 07:17:34;;;;;;;4.17;2.60;;;16.80;99.90;;;;;;5032291;28;20681;-50
2022/08/31 07:20:00;;;;;;;3.57;2.60;;;16.90;1.00;;;;;;5032575;28;20260;-58
2022/08/31 07:22:28;;;;;;;3.60;2.47;;;17.10;1.00;;;;;;5022924;28;20207;-60
2022/08/31 07:24:55;;;;;;;6.13;2.47;;;17.10;99.90;;;;;;5030998;28;20296;-60
2022/08/31 07:27:22;;;;;;;7.30;2.73;;;17.20;99.90;;;;;;5032359;28;20276;-58
2022/08/31 07:29:48;;;;;;;5.43;2.63;;;17.20;99.90;;;;;;5032071;28;20203;-58
2022/08/31 07:32:16;;;;;;;6.77;3.20;;;17.40;99.90;;;;;;5031680;28;20211;-57
2022/08/31 07:34:43;;;;;;;5.67;2.60;;;17.60;1.00;;;;;;5031867;28;20771;-55
2022/08/31 07:42:43;;;;;;;4.37;2.50;;;17.90;86.90;;;;;;5031976;28;20210;-55
2022/08/31 07:45:20;;;;;;;3.97;2.57;;;17.80;35.90;;;;;;5031830;28;20234;-51
2022/08/31 07:47:47;;;;;;;4.27;2.60;;;17.70;35.00;;;;;;5031808;28;20214;-59
2022/08/31 07:50:16;;;;;;;3.20;2.40;;;17.60;99.90;;;;;;5031963;28;20288;-54
2022/08/31 07:52:46;;;;;;;5.03;2.90;;;17.60;99.90;;;;;;5031738;28;20681;-55
2022/08/31 07:55:16;;;;;;;7.03;2.20;;;17.60;99.90;;;;;;5031689;28;20326;-55
2022/08/31 07:57:43;;;;;;;4.80;2.70;;;17.70;99.90;;;;;;5031395;28;20673;-53
2022/08/31 08:00:13;;;;;;;5.40;2.70;;;17.70;99.90;;;;;;5031690;28;20217;-60
2022/08/31 08:02:40;;;;;;;4.77;2.40;;;17.80;99.90;;;;;;5032257;28;20276;-53
2022/08/31 08:05:09;;;;;;;5.00;2.67;;;17.90;99.90;;;;;;5031115;28;20241;-57
2022/08/31 08:07:37;;;;;;;3.73;2.57;;;17.80;84.80;;;;;;5031158;28;20206;-51
2022/08/31 08:10:07;;;;;;;3.17;2.40;;;17.70;71.30;;;;;;5031153;28;20268;-51
2022/08/31 08:12:35;;;;;;;10.93;3.33;;;17.80;99.90;;;;;;5031776;28;20206;-52
2022/08/31 08:15:03;;;;;;;5.90;2.60;;;17.90;99.90;;;;;;5030867;28;20279;-52
2022/08/31 08:17:30;;;;;;;4.10;2.20;;;18.10;54.20;;;;;;5031150;28;20202;-58
2022/08/31 08:19:57;;;;;;;9.10;2.30;;;18.30;99.90;;;;;;5031076;28;20206;-57
2022/08/31 08:22:23;;;;;;;3.97;2.40;;;18.50;99.90;;;;;;5030694;28;20214;-60
2022/08/31 08:24:50;;;;;;;4.60;2.60;;;18.70;1.00;;;;;;5031077;28;20230;-62
2022/08/31 08:27:17;;;;;;;5.30;2.50;;;18.90;99.90;;;;;;5031098;28;20202;-64
2022/08/31 08:29:45;;;;;;;2.87;2.30;;;18.90;99.90;;;;;;5031287;28;20206;-63
2022/08/31 08:32:12;;;;;;;4.10;2.50;;;18.80;99.90;;;;;;5031072;28;20210;-61
2022/08/31 08:34:42;;;;;;;4.80;2.60;;;18.90;99.90;;;;;;5030630;28;20782;-63
2022/08/31 08:37:09;;;;;;;14.00;2.40;;;18.80;99.90;;;;;;5030449;28;20214;-62
2022/08/31 08:39:36;;;;;;;5.07;3.20;;;18.70;99.90;;;;;;5031332;28;20206;-62
2022/08/31 08:42:04;;;;;;;7.20;4.53;;;18.70;99.90;;;;;;5030677;28;20681;-58
2022/08/31 08:44:32;;;;;;;3.97;2.40;;;18.90;99.90;;;;;;5030735;28;20311;-60
2022/08/31 08:47:04;;;;;;;4.90;2.33;;;19.00;99.90;;;;;;5030661;28;20206;-63
2022/08/31 08:49:39;;;;;;;3.37;2.37;;;19.00;99.90;;;;;;5030902;28;20264;-63
2022/08/31 08:52:10;;;;;;;4.40;2.53;;;19.10;73.00;;;;;;5031227;28;20297;-63
2022/08/31 08:54:40;;;;;;;6.10;2.60;;;19.30;1.00;;;;;;5030647;28;20226;-65
2022/08/31 08:57:11;;;;;;;6.53;2.87;;;19.30;1.00;;;;;;5030675;28;20244;-65
2022/08/31 08:59:38;;;;;;;6.67;2.30;;;19.30;1.00;;;;;;5030607;28;20210;-62
2022/08/31 09:02:07;;;;;;;5.90;2.53;;;19.40;1.00;;;;;;5031716;28;20233;-64
2022/08/31 09:04:58;;;;;;;4.93;2.27;;;19.40;1.00;;;;;;5030457;28;20255;-64
2022/08/31 09:07:43;;;;;;;9.40;2.40;;;19.40;1.00;;;;;;5017230;28;20216;-64
2022/08/31 09:10:20;;;;;;;3.33;1.93;;;19.40;1.00;;;;;;5030375;28;20276;-64
2022/08/31 09:12:58;;;;;;;3.50;2.10;;;19.40;99.90;;;;;;5031004;28;20210;-65
2022/08/31 09:15:47;;;;;;;6.77;2.50;;;19.50;99.90;;;;;;5010884;28;20199;-65
2022/08/31 09:18:26;;;;;;;5.73;2.53;;;19.70;99.90;;;;;;5010852;28;20916;-63
2022/08/31 09:21:03;;;;;;;5.07;2.50;;;19.90;99.90;;;;;;5011717;28;20221;-58
2022/08/31 09:23:35;;;;;;;4.67;2.87;;;20.10;99.90;;;;;;5011866;28;20226;-58
2022/08/31 09:26:03;;;;;;;5.67;3.43;;;20.20;99.90;;;;;;5020202;28;20207;-62
2022/08/31 09:28:34;;;;;;;7.33;3.80;;;20.20;99.90;;;;;;5030650;28;20206;-56
2022/08/31 09:31:01;;;;;;;7.50;3.20;;;20.30;99.90;;;;;;5030727;28;20291;-58
2022/08/31 09:33:32;;;;;;;5.87;2.87;;;20.30;99.90;;;;;;5030798;28;20237;-62
2022/08/31 09:36:14;;;;;;;6.43;3.10;;;20.50;99.90;;;;;;5034739;28;20207;-60
2022/08/31 09:38:44;;;;;;;8.30;3.40;;;20.50;99.90;;;;;;5033912;28;20668;-62
2022/08/31 09:41:22;;;;;;;5.23;2.57;;;20.60;99.90;;;;;;5034394;28;20210;-62
2022/08/31 09:43:49;;;;;;;6.83;2.53;;;20.60;99.90;;;;;;5033950;28;20226;-62
2022/08/31 09:46:25;;;;;;;6.37;3.20;;;20.70;99.90;;;;;;5034180;28;20862;-64
2022/08/31 09:48:57;;;;;;;5.93;3.10;;;20.30;99.90;;;;;;5033927;28;20239;-62
2022/08/31 09:51:27;;;;;;;3.80;2.90;;;20.10;99.90;;;;;;5034252;28;20210;-61
2022/08/31 09:56:54;;;;;;;6.60;3.20;;;20.30;99.90;;;;;;5033689;28;20201;-63
2022/08/31 09:59:36;;;;;;;6.00;2.77;;;20.50;99.90;;;;;;5033933;28;20202;-63
2022/08/31 10:02:07;;;;;;;6.13;2.67;;;20.80;99.90;;;;;;5033455;28;20673;-62
2022/08/31 10:04:49;;;;;;;3.20;2.63;;;21.10;99.90;;;;;;5034027;28;20295;-57
2022/08/31 10:07:29;;;;;;;3.47;2.90;;;21.20;99.90;;;;;;5033540;28;20206;-57
2022/08/31 10:10:00;;;;;;;5.20;2.97;;;21.30;99.90;;;;;;5034006;28;20268;-62
2022/08/31 10:12:38;;;;;;;3.47;2.70;;;21.20;99.90;;;;;;5033365;28;20210;-62
2022/08/31 10:15:12;;;;;;;4.57;3.30;;;21.00;99.90;;;;;;5033859;28;20280;-58
2022/08/31 10:17:44;;;;;;;4.70;3.60;;;21.00;99.90;;;;;;5033522;28;20264;-61
2022/08/31 10:20:18;;;;;;;4.10;3.33;;;20.80;99.90;;;;;;5031912;28;20214;-56
2022/08/31 10:22:49;;;;;;;5.13;3.50;;;21.10;99.90;;;;;;5033423;28;20205;-59
2022/08/31 10:25:22;;;;;;;7.80;3.40;;;21.40;99.90;;;;;;5033131;28;20226;-60
2022/08/31 10:27:54;;;;;;;3.90;2.97;;;21.60;99.90;;;;;;5033125;28;20206;-60
2022/08/31 10:30:30;;;;;;;6.10;3.73;;;21.60;99.90;;;;;;5033188;28;20684;-64
2022/08/31 10:33:04;;;;;;;4.37;3.37;;;21.70;99.90;;;;;;5033232;28;20218;-62
2022/08/31 10:35:41;;;;;;;5.03;3.40;;;21.90;99.90;;;;;;5033080;28;20676;-62
2022/08/31 10:38:20;;;;;;;3.90;2.87;;;22.00;99.90;;;;;;5033206;28;20603;-61
2022/08/31 10:40:51;;;;;;;5.10;3.40;;;22.10;99.90;;;;;;5033345;28;20210;-61
2022/08/31 10:43:22;;;;;;;5.87;3.03;;;22.00;99.90;;;;;;5031621;28;20620;-62
2022/08/31 10:45:52;;;;;;;6.70;2.97;;;21.90;99.90;;;;;;5031435;28;20292;-62
2022/08/31 10:48:21;;;;;;;6.87;3.10;;;21.70;99.90;;;;;;5033322;28;20210;-63
2022/08/31 10:50:57;;;;;;;6.57;2.97;;;21.90;99.90;;;;;;5029999;28;20207;-62
2022/08/31 10:53:41;;;;;;;4.93;3.23;;;22.00;99.90;;;;;;5031663;28;20280;-63
2022/08/31 10:56:14;;;;;;;4.33;3.47;;;22.00;99.90;;;;;;5030557;28;20210;-65
2022/08/31 10:58:56;;;;;;;8.67;3.00;;;22.00;99.90;;;;;;5031780;28;20236;-65
2022/08/31 11:01:31;;;;;;;5.47;2.80;;;22.10;99.90;;;;;;5032384;28;20210;-66
2022/08/31 11:04:24;;;;;;;4.50;3.03;;;22.00;99.90;;;;;;5032915;28;20229;-64
2022/08/31 11:07:00;;;;;;;6.00;3.00;;;22.00;99.90;;;;;;5031370;28;20568;-63
2022/08/31 11:09:33;;;;;;;5.27;3.50;;;21.90;99.90;;;;;;5031658;28;20240;-63
2022/08/31 11:12:06;;;;;;;4.03;2.83;;;22.00;99.90;;;;;;5031144;28;20206;-64
2022/08/31 11:14:49;;;;;;;5.73;3.07;;;22.00;99.90;;;;;;5029619;28;20267;-64
2022/08/31 11:17:36;;;;;;;4.63;3.40;;;22.00;99.90;;;;;;5029808;28;20264;-63
2022/08/31 11:20:24;;;;;;;4.73;3.07;;;22.10;99.90;;;;;;5030517;28;20228;-63
2022/08/31 11:23:25;;;;;;;8.37;3.13;;;22.10;99.90;;;;;;5031464;28;20206;-64
2022/08/31 11:26:35;;;;;;;3.37;2.80;;;22.00;99.90;;;;;;5031822;28;20282;-64
2022/08/31 11:29:12;;;;;;;3.97;3.13;;;22.20;99.90;;;;;;5032255;28;20284;-65
2022/08/31 11:31:39;;;;;;;4.10;3.43;;;22.40;99.90;;;;;;5031943;28;20276;-64
2022/08/31 11:34:11;;;;;;;4.80;2.90;;;22.40;99.90;;;;;;5032529;28;20234;-63
2022/08/31 11:36:48;;;;;;;5.00;3.37;;;22.20;99.90;;;;;;5031658;28;20214;-63
2022/08/31 11:39:34;;;;;;;5.30;3.47;;;22.30;99.90;;;;;;5032080;28;20267;-65
2022/08/31 11:42:05;;;;;;;4.57;3.13;;;22.20;99.90;;;;;;5031910;28;20268;-63
2022/08/31 11:44:52;;;;;;;5.37;3.43;;;22.30;99.90;;;;;;5031637;28;20238;-63
2022/08/31 11:47:42;;;;;;;3.93;2.90;;;22.50;99.90;;;;;;5030532;28;20699;-64
2022/08/31 11:50:53;;;;;;;6.97;3.17;;;22.50;99.90;;;;;;5012251;28;20708;-63
2022/08/31 11:53:30;;;;;;;5.80;3.37;;;22.40;99.90;;;;;;5011694;28;20604;-63
2022/08/31 11:56:02;;;;;;;5.07;3.40;;;22.20;99.90;;;;;;5011806;28;20199;-63
2022/08/31 11:58:33;;;;;;;5.37;3.50;;;22.10;99.90;;;;;;5012023;28;20207;-66
2022/08/31 12:01:30;;;;;;;5.77;3.27;;;22.20;99.90;;;;;;5022149;28;20216;-65
2022/08/31 12:04:02;;;;;;;4.90;3.37;;;22.30;99.90;;;;;;5023154;28;20233;-63
2022/08/31 12:07:09;;;;;;;5.23;3.43;;;22.40;99.90;;;;;;5031498;28;20210;-63
2022/08/31 12:10:03;;;;;;;4.77;3.43;;;22.50;99.90;;;;;;5031703;28;20218;-62
2022/08/31 12:12:50;;;;;;;7.70;3.17;;;22.50;99.90;;;;;;5031875;28;20256;-62
2022/08/31 12:15:25;;;;;;;5.57;3.13;;;22.60;99.90;;;;;;5031353;28;20226;-64
2022/08/31 12:18:05;;;;;;;3.60;3.30;;;22.60;99.90;;;;;;5031461;28;20213;-63
2022/08/31 12:23:46;;;;;;;4.03;3.27;;;22.70;99.90;;;;;;5031594;28;20271;-63
2022/08/31 12:26:58;;;;;;;4.20;2.90;;;22.90;99.90;;;;;;5030915;28;20708;-64
2022/08/31 12:29:29;;;;;;;3.60;3.23;;;23.20;99.90;;;;;;5031503;28;20661;-63
2022/08/31 12:32:20;;;;;;;5.67;3.10;;;23.30;99.90;;;;;;5031119;28;20767;-62
2022/08/31 12:34:50;;;;;;;3.37;3.07;;;23.40;99.90;;;;;;5031372;28;20289;-61
2022/08/31 12:37:20;;;;;;;5.30;3.07;;;23.60;99.90;;;;;;5031102;28;20587;-63
2022/08/31 12:39:47;;;;;;;9.00;2.97;;;23.70;99.90;;;;;;5031463;28;20210;-63
2022/08/31 12:42:14;;;;;;;3.30;2.90;;;23.70;99.90;;;;;;5030999;28;20210;-63
2022/08/31 12:44:50;;;;;;;3.50;2.57;;;23.70;99.90;;;;;;5030648;28;20230;-63
2022/08/31 12:47:28;;;;;;;4.90;3.20;;;23.60;99.90;;;;;;5027184;28;20206;-63
2022/08/31 12:50:09;;;;;;;7.20;2.90;;;23.50;99.90;;;;;;5024201;28;20206;-62
2022/08/31 12:52:55;;;;;;;5.33;3.07;;;23.50;99.90;;;;;;5031286;28;20624;-62
2022/08/31 12:55:29;;;;;;;5.10;2.90;;;23.30;99.90;;;;;;5031221;28;20226;-64
2022/08/31 12:58:09;;;;;;;3.87;2.60;;;23.20;99.90;;;;;;5030560;28;20213;-64
2022/08/31 13:00:38;;;;;;;5.00;2.80;;;23.30;99.90;;;;;;5030771;28;20210;-64
2022/08/31 13:03:15;;;;;;;3.10;2.80;;;23.60;99.90;;;;;;5030738;28;20202;-62
2022/08/31 13:05:45;;;;;;;2.67;2.30;;;23.90;99.90;;;;;;5030660;28;20206;-63
2022/08/31 13:08:23;;;;;;;6.37;2.90;;;23.90;99.90;;;;;;5030705;28;20304;-62
2022/08/31 13:10:50;;;;;;;4.90;2.70;;;23.80;99.90;;;;;;5034697;28;20201;-62
2022/08/31 13:13:22;;;;;;;7.10;2.73;;;23.70;99.90;;;;;;5034992;28;20202;-61
2022/08/31 13:15:49;;;;;;;4.43;2.60;;;23.50;99.90;;;;;;5034328;28;20210;-61
2022/08/31 13:18:22;;;;;;;6.40;3.03;;;23.20;99.90;;;;;;5034522;28;20205;-63
2022/08/31 13:20:55;;;;;;;3.30;2.60;;;22.90;99.90;;;;;;5034706;28;20212;-62
2022/08/31 13:23:27;;;;;;;4.07;2.53;;;23.10;99.90;;;;;;5034682;28;20248;-64